Terminal Aerodrome Forecast
Issued by NWS

Home | Current Version | Previous Version | Graphics & Text | Print | Product List | Glossary On
Versions: 1 2 3 4 5 6 7 8 9 10 11 12 13 14 15 16 17 18 19 20 21
964
FTUS43 KLOT 220900 AAA
TAFORD
TAF AMD
KORD 220900Z 2209/2312 04011KT P6SM BKN200
     FM221300 05012G18KT P6SM BKN250
     FM230100 03008KT P6SM SKC=

USA.gov is the U.S. government's official web portal to all federal, state and local government web resources and services.